createdAt,value
2023-01-18T00:00:39.365Z,4.10
2023-01-18T00:03:08.863Z,4.10
2023-01-18T00:05:41.012Z,4.10
2023-01-18T00:08:08.692Z,4.10
2023-01-18T00:10:35.342Z,4.00
2023-01-18T00:13:02.282Z,3.90
2023-01-18T00:15:29.109Z,3.90
2023-01-18T00:17:55.755Z,3.90
2023-01-18T00:20:25.485Z,3.90
2023-01-18T00:22:52.637Z,3.90
2023-01-18T00:25:21.086Z,3.90
2023-01-18T00:27:53.395Z,3.90
2023-01-18T00:30:25.931Z,3.80
2023-01-18T00:32:58.601Z,3.80
2023-01-18T00:35:26.107Z,3.80
2023-01-18T00:37:53.915Z,3.80
2023-01-18T00:40:23.695Z,3.80
2023-01-18T00:43:08.823Z,3.80
2023-01-18T00:45:35.629Z,3.80
2023-01-18T00:48:02.758Z,3.90
2023-01-18T00:50:29.852Z,3.80
2023-01-18T00:52:58.593Z,3.80
2023-01-18T00:55:26.048Z,3.80
2023-01-18T00:57:52.763Z,3.80
2023-01-18T01:00:20.372Z,3.80
2023-01-18T01:02:47.092Z,3.70
2023-01-18T01:05:37.478Z,3.70
2023-01-18T01:08:05.809Z,3.80
2023-01-18T01:10:34.116Z,3.70
2023-01-18T01:13:19.911Z,3.70
2023-01-18T01:16:05.293Z,3.70
2023-01-18T01:18:50.675Z,3.70
2023-01-18T01:21:36.378Z,3.70
2023-01-18T01:24:21.873Z,3.70
2023-01-18T01:26:48.539Z,3.70
2023-01-18T01:29:15.982Z,3.70
2023-01-18T01:31:42.724Z,3.70
2023-01-18T01:34:10.202Z,3.70
2023-01-18T01:36:37.093Z,3.70
2023-01-18T01:39:04.720Z,3.70
2023-01-18T01:41:33.743Z,3.70
2023-01-18T01:44:24.384Z,3.80
2023-01-18T01:46:57.624Z,3.70
2023-01-18T01:49:32.840Z,3.70
2023-01-18T01:52:05.391Z,3.80
2023-01-18T01:54:37.836Z,3.70
2023-01-18T01:57:12.190Z,3.80
2023-01-18T01:59:45.119Z,3.70
2023-01-18T02:02:12.208Z,3.80
2023-01-18T02:04:44.207Z,3.70
2023-01-18T02:07:14.020Z,3.70
2023-01-18T02:09:41.629Z,3.70
2023-01-18T02:12:08.301Z,3.70
2023-01-18T02:14:35.907Z,3.60
2023-01-18T02:17:32.779Z,3.60
2023-01-18T02:20:08.936Z,3.60
2023-01-18T02:22:44.708Z,3.60
2023-01-18T02:25:28.747Z,3.50
2023-01-18T02:28:13.694Z,3.50
2023-01-18T02:31:03.382Z,3.50
2023-01-18T02:33:50.969Z,3.50
2023-01-18T02:36:33.480Z,3.50
2023-01-18T02:39:23.277Z,3.60
2023-01-18T02:42:16.715Z,3.60
2023-01-18T02:45:05.199Z,3.60
2023-01-18T02:47:32.996Z,3.60
2023-01-18T02:49:59.687Z,3.60
2023-01-18T02:52:51.138Z,3.60
2023-01-18T02:55:31.711Z,3.60
2023-01-18T02:58:34.573Z,3.50
2023-01-18T03:01:15.007Z,3.50
2023-01-18T03:03:46.060Z,3.50
2023-01-18T03:06:13.792Z,3.50
2023-01-18T03:08:48.301Z,3.50
2023-01-18T03:11:39.406Z,3.50
2023-01-18T03:14:21.010Z,3.60
2023-01-18T03:17:02.156Z,3.60
2023-01-18T03:20:06.222Z,3.60
2023-01-18T03:23:24.644Z,3.60
2023-01-18T03:25:54.895Z,3.60
2023-01-18T03:28:48.160Z,3.60
2023-01-18T03:31:38.035Z,3.50
2023-01-18T03:34:17.684Z,3.50
2023-01-18T03:36:48.074Z,3.40
2023-01-18T03:39:32.776Z,3.40
2023-01-18T03:42:06.092Z,3.40
2023-01-18T03:44:40.002Z,3.30
2023-01-18T03:47:07.723Z,3.30
2023-01-18T03:49:35.085Z,3.30
2023-01-18T03:52:20.156Z,3.20
2023-01-18T03:54:54.307Z,3.20
2023-01-18T03:57:35.565Z,3.20
2023-01-18T04:00:05.997Z,3.20
2023-01-18T04:02:32.778Z,3.20
2023-01-18T04:05:03.524Z,3.20
2023-01-18T04:07:31.782Z,3.10
2023-01-18T04:09:59.380Z,3.10
2023-01-18T04:12:26.607Z,3.10
2023-01-18T04:14:53.578Z,3.00
2023-01-18T04:17:20.534Z,2.90
2023-01-18T04:19:47.211Z,2.90
2023-01-18T04:22:13.985Z,2.90
2023-01-18T04:24:40.678Z,2.90
2023-01-18T04:27:08.150Z,2.90
2023-01-18T04:29:34.802Z,2.90
2023-01-18T04:32:01.555Z,2.90
2023-01-18T04:34:28.314Z,2.90
2023-01-18T04:36:55.091Z,2.80
2023-01-18T04:39:21.745Z,2.70
2023-01-18T04:41:48.413Z,2.70
2023-01-18T04:44:15.437Z,2.70
2023-01-18T04:46:42.105Z,2.70
2023-01-18T04:49:16.321Z,2.70
2023-01-18T04:51:44.867Z,2.70
2023-01-18T04:54:12.997Z,2.70
2023-01-18T04:56:39.850Z,2.70
2023-01-18T04:59:06.588Z,2.70
2023-01-18T05:01:33.738Z,2.70
2023-01-18T05:04:01.626Z,2.60
2023-01-18T05:06:28.300Z,2.60
2023-01-18T05:08:54.961Z,2.50
2023-01-18T05:11:23.302Z,2.50
2023-01-18T05:13:50.279Z,2.50
2023-01-18T05:16:22.680Z,2.50
2023-01-18T05:18:49.808Z,2.50
2023-01-18T05:21:17.095Z,2.50
2023-01-18T05:23:43.910Z,2.60
2023-01-18T05:26:17.336Z,2.60
2023-01-18T05:28:44.752Z,2.60
2023-01-18T05:31:13.355Z,2.60
2023-01-18T05:33:40.245Z,2.50
2023-01-18T05:36:07.593Z,2.60
2023-01-18T05:38:34.471Z,2.60
2023-01-18T05:41:01.527Z,2.70
2023-01-18T05:43:29.050Z,2.80
2023-01-18T05:45:56.210Z,2.80
2023-01-18T05:48:24.087Z,2.80
2023-01-18T05:50:50.848Z,2.90
2023-01-18T05:53:21.320Z,2.90
2023-01-18T05:56:01.373Z,2.90
2023-01-18T05:58:28.773Z,2.90
2023-01-18T06:00:56.035Z,3.00
2023-01-18T06:03:25.119Z,3.00
2023-01-18T06:05:52.516Z,3.00
2023-01-18T06:08:20.029Z,3.00
2023-01-18T06:10:54.305Z,3.00
2023-01-18T06:13:22.765Z,3.00
2023-01-18T06:15:49.773Z,3.10
2023-01-18T06:18:16.572Z,3.10
2023-01-18T06:20:43.450Z,3.10
2023-01-18T06:23:10.118Z,3.10
2023-01-18T06:25:36.816Z,3.10
2023-01-18T06:28:05.044Z,3.10
2023-01-18T06:30:33.871Z,3.10
2023-01-18T06:33:04.915Z,3.20
2023-01-18T06:35:31.629Z,3.20
2023-01-18T06:37:58.979Z,3.20
2023-01-18T06:40:26.144Z,3.20
2023-01-18T06:42:52.833Z,3.60
2023-01-18T06:45:22.003Z,3.20
2023-01-18T06:47:49.391Z,3.20
2023-01-18T06:50:16.837Z,3.30
2023-01-18T06:52:44.599Z,3.20
2023-01-18T06:55:13.052Z,3.20
2023-01-18T06:57:39.913Z,3.20
2023-01-18T07:00:07.928Z,3.20
2023-01-18T07:02:35.781Z,3.20
2023-01-18T07:05:03.579Z,3.20
2023-01-18T07:07:31.046Z,3.30
2023-01-18T07:09:57.711Z,3.20
2023-01-18T07:12:24.486Z,3.20
2023-01-18T07:14:51.265Z,3.20
2023-01-18T07:17:17.974Z,3.20
2023-01-18T07:19:44.985Z,3.20
2023-01-18T07:22:13.222Z,3.20
2023-01-18T07:24:39.975Z,3.20
2023-01-18T07:27:06.617Z,3.20
2023-01-18T07:29:33.288Z,3.20
2023-01-18T07:32:01.144Z,3.20
2023-01-18T07:34:28.050Z,3.20
2023-01-18T07:36:55.308Z,3.10
2023-01-18T07:39:22.100Z,3.10
2023-01-18T07:41:48.800Z,3.10
2023-01-18T07:44:15.763Z,3.10
2023-01-18T07:46:43.288Z,3.10
2023-01-18T07:49:10.150Z,3.10
2023-01-18T07:51:36.933Z,3.10
2023-01-18T07:54:03.705Z,3.20
2023-01-18T07:56:30.888Z,3.20
2023-01-18T07:58:57.628Z,3.20
2023-01-18T08:01:24.651Z,3.20
2023-01-18T08:03:53.554Z,3.20
2023-01-18T08:06:25.104Z,3.20
2023-01-18T08:08:52.629Z,3.20
2023-01-18T08:11:19.655Z,3.20
2023-01-18T08:13:48.857Z,3.30
2023-01-18T08:16:16.266Z,3.30
2023-01-18T08:18:45.202Z,3.30
2023-01-18T08:21:13.488Z,3.30
2023-01-18T08:23:40.712Z,3.30
2023-01-18T08:26:08.937Z,3.30
2023-01-18T08:28:35.964Z,3.20
2023-01-18T08:31:25.126Z,3.30
2023-01-18T08:33:53.151Z,3.20
2023-01-18T08:36:22.315Z,3.20
2023-01-18T08:38:55.548Z,3.20
2023-01-18T08:41:28.029Z,3.20
2023-01-18T08:43:55.933Z,3.20
2023-01-18T08:46:23.165Z,3.20
2023-01-18T08:48:54.679Z,3.20
2023-01-18T08:51:23.157Z,3.20
2023-01-18T08:53:51.636Z,3.20
2023-01-18T08:56:19.360Z,3.20
2023-01-18T08:58:47.467Z,3.20
2023-01-18T09:01:14.237Z,3.20
2023-01-18T09:03:41.972Z,3.20
2023-01-18T09:06:11.794Z,3.20
2023-01-18T09:08:39.813Z,3.10
2023-01-18T09:11:09.708Z,3.10
2023-01-18T09:13:38.453Z,3.10
2023-01-18T09:16:11.203Z,3.10
2023-01-18T09:18:38.331Z,3.10
2023-01-18T09:21:07.175Z,3.10
2023-01-18T09:23:34.765Z,3.10
2023-01-18T09:26:07.494Z,3.10
2023-01-18T09:28:34.395Z,3.10
2023-01-18T09:31:08.763Z,3.00
2023-01-18T09:33:38.219Z,3.00
2023-01-18T09:36:10.690Z,3.00
2023-01-18T09:38:39.832Z,3.10
2023-01-18T09:41:24.187Z,3.10
2023-01-18T09:43:55.117Z,3.10
2023-01-18T09:46:23.214Z,3.10
2023-01-18T09:48:55.883Z,3.20
2023-01-18T09:51:28.034Z,3.20
2023-01-18T09:54:04.551Z,3.20
2023-01-18T09:56:41.343Z,3.20
2023-01-18T09:59:40.806Z,3.30
2023-01-18T10:02:21.320Z,3.30
2023-01-18T10:04:53.729Z,3.30
2023-01-18T10:07:22.621Z,3.40
2023-01-18T10:09:53.229Z,3.40
2023-01-18T10:12:43.588Z,3.50
2023-01-18T10:15:22.262Z,3.50
2023-01-18T10:17:52.068Z,3.60
2023-01-18T10:20:33.974Z,3.60
2023-01-18T10:23:46.369Z,3.70
2023-01-18T10:26:21.838Z,3.90
2023-01-18T10:29:17.633Z,4.00
2023-01-18T10:31:58.830Z,4.10
2023-01-18T10:34:34.644Z,4.20
2023-01-18T10:37:16.940Z,4.30
2023-01-18T10:39:57.610Z,4.40
2023-01-18T10:42:31.068Z,4.40
2023-01-18T10:44:57.846Z,4.50
2023-01-18T10:47:24.493Z,4.60
2023-01-18T10:49:58.634Z,4.70
2023-01-18T10:52:31.324Z,4.80
2023-01-18T10:55:07.542Z,4.90
2023-01-18T10:57:46.019Z,5.00
2023-01-18T11:00:27.792Z,5.10
2023-01-18T11:02:55.864Z,5.10
2023-01-18T11:05:30.762Z,5.10
2023-01-18T11:08:34.207Z,5.10
2023-01-18T11:11:04.093Z,5.00
2023-01-18T11:13:45.705Z,5.00
2023-01-18T11:16:21.064Z,4.90
2023-01-18T11:19:20.349Z,4.90
2023-01-18T11:21:51.940Z,4.90
2023-01-18T11:24:26.148Z,4.90
2023-01-18T11:27:07.468Z,4.80
2023-01-18T11:29:42.657Z,4.70
2023-01-18T11:32:26.415Z,4.70
2023-01-18T11:34:58.719Z,4.70
2023-01-18T11:37:36.960Z,4.70
2023-01-18T11:40:18.949Z,4.70
2023-01-18T11:42:47.105Z,4.80
2023-01-18T11:45:32.335Z,4.80
2023-01-18T11:49:00.607Z,4.90
2023-01-18T11:51:38.830Z,4.90
2023-01-18T11:54:16.330Z,5.00
2023-01-18T11:56:48.023Z,5.00
2023-01-18T11:59:26.513Z,5.00
2023-01-18T12:02:25.590Z,5.00
2023-01-18T12:05:10.659Z,5.00
2023-01-18T12:08:02.752Z,5.00
2023-01-18T12:10:52.056Z,5.10
2023-01-18T12:13:34.155Z,5.10
2023-01-18T12:16:22.400Z,5.20
2023-01-18T12:19:18.321Z,5.30
2023-01-18T12:22:03.831Z,5.30
2023-01-18T12:24:49.379Z,5.40
2023-01-18T12:27:21.989Z,5.40
2023-01-18T12:29:54.452Z,5.40
2023-01-18T12:32:34.847Z,5.50
2023-01-18T12:35:23.802Z,5.40
2023-01-18T12:38:15.393Z,5.40
2023-01-18T12:41:00.048Z,5.40
2023-01-18T12:43:33.749Z,5.50
2023-01-18T12:46:14.623Z,5.50
2023-01-18T12:48:51.277Z,5.50
2023-01-18T12:51:22.199Z,5.40
2023-01-18T12:53:55.731Z,5.40
2023-01-18T12:56:34.343Z,5.40
2023-01-18T12:59:08.335Z,5.50
2023-01-18T13:01:42.103Z,5.50
2023-01-18T13:04:20.747Z,5.50
2023-01-18T13:06:51.729Z,5.50
2023-01-18T13:09:25.989Z,5.50
2023-01-18T13:11:52.933Z,5.60
2023-01-18T13:14:33.599Z,5.50
2023-01-18T13:17:05.487Z,5.50
2023-01-18T13:20:17.889Z,5.40
2023-01-18T13:22:53.674Z,5.40
2023-01-18T13:25:37.995Z,5.30
2023-01-18T13:28:25.561Z,5.30
2023-01-18T13:30:56.943Z,5.30
2023-01-18T13:33:24.795Z,5.30
2023-01-18T13:35:58.345Z,5.20
2023-01-18T13:38:40.765Z,5.20
2023-01-18T13:41:11.548Z,5.20
2023-01-18T13:43:38.163Z,5.20
2023-01-18T13:46:08.082Z,5.20
2023-01-18T13:48:47.161Z,5.20
2023-01-18T13:51:42.569Z,5.10
2023-01-18T13:54:12.546Z,5.10
2023-01-18T13:56:40.059Z,5.20
2023-01-18T13:59:12.864Z,5.20
2023-01-18T14:01:45.883Z,5.20
2023-01-18T14:04:31.892Z,6.00
2023-01-18T14:07:04.662Z,5.20
2023-01-18T14:09:38.756Z,5.20
2023-01-18T14:12:07.184Z,5.20
2023-01-18T14:14:51.287Z,5.10
2023-01-18T14:17:18.683Z,5.00
2023-01-18T14:19:48.380Z,5.00
2023-01-18T14:22:37.160Z,4.90
2023-01-18T14:25:25.298Z,4.80
2023-01-18T14:28:08.044Z,4.80
2023-01-18T14:30:37.998Z,4.70
2023-01-18T14:33:24.536Z,4.70
2023-01-18T14:35:59.120Z,4.70
2023-01-18T14:38:26.634Z,4.70
2023-01-18T14:40:59.407Z,4.70
2023-01-18T14:43:35.280Z,4.70
2023-01-18T14:46:10.007Z,4.60
2023-01-18T14:48:56.084Z,4.50
2023-01-18T14:51:25.137Z,4.50
2023-01-18T14:54:00.701Z,4.40
2023-01-18T14:56:29.394Z,4.40
2023-01-18T14:59:20.749Z,4.30
2023-01-18T15:01:53.965Z,4.20
2023-01-18T15:04:26.889Z,4.20
2023-01-18T15:06:58.716Z,4.10
2023-01-18T15:09:28.284Z,4.00
2023-01-18T15:12:01.278Z,4.00
2023-01-18T15:14:34.591Z,4.00
2023-01-18T15:17:05.423Z,4.00
2023-01-18T15:19:45.827Z,4.00
2023-01-18T15:22:15.494Z,3.90
2023-01-18T15:24:44.285Z,3.90
2023-01-18T15:27:19.661Z,3.80
2023-01-18T15:29:49.220Z,3.80
2023-01-18T15:32:20.565Z,3.80
2023-01-18T15:34:49.248Z,3.80
2023-01-18T15:37:30.231Z,3.70
2023-01-18T15:39:57.686Z,3.70
2023-01-18T15:42:29.587Z,3.70
2023-01-18T15:44:58.117Z,3.70
2023-01-18T15:47:26.720Z,3.60
2023-01-18T15:49:56.611Z,3.60
2023-01-18T15:52:39.072Z,3.60
2023-01-18T15:55:08.718Z,3.50
2023-01-18T15:57:36.647Z,3.50
2023-01-18T16:00:05.873Z,3.50
2023-01-18T16:02:32.998Z,3.40
2023-01-18T16:05:29.392Z,3.40
2023-01-18T16:08:31.545Z,3.30
2023-01-18T16:10:58.515Z,3.30
2023-01-18T16:13:37.521Z,3.20
2023-01-18T16:16:10.465Z,3.20
2023-01-18T16:18:37.306Z,3.20
2023-01-18T16:21:12.647Z,3.20
2023-01-18T16:23:44.345Z,3.20
2023-01-18T16:26:13.415Z,3.10
2023-01-18T16:28:40.237Z,3.20
2023-01-18T16:31:07.203Z,3.20
2023-01-18T16:33:34.009Z,3.20
2023-01-18T16:36:02.982Z,3.10
2023-01-18T16:38:29.809Z,3.10
2023-01-18T16:40:59.050Z,3.20
2023-01-18T16:43:29.562Z,3.20
2023-01-18T16:45:58.994Z,3.20
2023-01-18T16:48:27.430Z,3.10
2023-01-18T16:50:56.013Z,3.10
2023-01-18T16:53:22.974Z,3.10
2023-01-18T16:55:49.915Z,3.10
2023-01-18T16:58:18.734Z,3.10
2023-01-18T17:01:13.879Z,3.10
2023-01-18T17:03:40.843Z,3.10
2023-01-18T17:06:10.313Z,3.20
2023-01-18T17:08:37.366Z,3.50
2023-01-18T17:11:04.641Z,3.30
2023-01-18T17:13:31.359Z,3.70
2023-01-18T17:15:58.051Z,3.30
2023-01-18T17:18:26.980Z,3.30
2023-01-18T17:20:54.693Z,3.30
2023-01-18T17:23:21.506Z,3.30
2023-01-18T17:25:49.005Z,3.40
2023-01-18T17:28:17.892Z,3.30
2023-01-18T17:30:47.115Z,3.40
2023-01-18T17:33:20.331Z,3.40
2023-01-18T17:35:48.580Z,3.30
2023-01-18T17:38:23.204Z,3.30
2023-01-18T17:40:51.281Z,3.30
2023-01-18T17:43:28.500Z,3.20
2023-01-18T17:46:02.414Z,3.20
2023-01-18T17:48:29.511Z,3.20
2023-01-18T17:50:56.217Z,3.10
2023-01-18T17:53:22.870Z,3.00
2023-01-18T17:55:49.944Z,3.10
2023-01-18T17:58:16.601Z,3.10
2023-01-18T18:00:43.232Z,3.00
2023-01-18T18:03:10.228Z,3.10
2023-01-18T18:05:36.989Z,3.10
2023-01-18T18:08:03.768Z,3.20
2023-01-18T18:10:31.100Z,4.00
2023-01-18T18:12:58.294Z,3.30
2023-01-18T18:15:25.262Z,3.30
2023-01-18T18:17:51.936Z,3.40
2023-01-18T18:20:18.611Z,3.40
2023-01-18T18:22:45.310Z,3.40
2023-01-18T18:25:11.980Z,3.40
2023-01-18T18:27:47.304Z,3.40
2023-01-18T18:30:15.133Z,3.30
2023-01-18T18:32:41.931Z,3.30
2023-01-18T18:35:23.677Z,3.40
2023-01-18T18:37:51.641Z,3.40
2023-01-18T18:40:18.955Z,3.30
2023-01-18T18:42:59.902Z,3.30
2023-01-18T18:45:27.891Z,3.30
2023-01-18T18:47:54.530Z,3.20
2023-01-18T18:50:21.194Z,3.20
2023-01-18T18:52:47.972Z,3.10
2023-01-18T18:55:14.685Z,3.10
2023-01-18T18:57:41.474Z,3.00
2023-01-18T19:00:08.807Z,3.00
2023-01-18T19:02:35.687Z,3.00
2023-01-18T19:05:03.309Z,3.00
2023-01-18T19:07:30.079Z,2.90
2023-01-18T19:09:56.714Z,2.90
2023-01-18T19:12:23.497Z,2.80
2023-01-18T19:14:50.168Z,2.70
2023-01-18T19:17:28.977Z,2.70
2023-01-18T19:19:56.877Z,2.70
2023-01-18T19:22:23.566Z,2.60
2023-01-18T19:24:50.440Z,2.60
2023-01-18T19:27:17.211Z,2.60
2023-01-18T19:29:43.948Z,2.60
2023-01-18T19:32:10.645Z,2.70
2023-01-18T19:34:38.440Z,2.70
2023-01-18T19:37:05.633Z,2.80
2023-01-18T19:39:34.816Z,2.90
2023-01-18T19:42:02.497Z,2.90
2023-01-18T19:44:29.230Z,3.00
2023-01-18T19:46:56.956Z,3.10
2023-01-18T19:49:26.538Z,3.20
2023-01-18T19:51:54.595Z,3.30
2023-01-18T19:54:21.872Z,3.40
2023-01-18T19:56:48.800Z,3.40
2023-01-18T19:59:15.998Z,3.40
2023-01-18T20:01:43.599Z,3.30
2023-01-18T20:04:12.826Z,3.20
2023-01-18T20:06:39.740Z,3.10
2023-01-18T20:09:15.801Z,3.00
2023-01-18T20:11:45.172Z,3.00
2023-01-18T20:14:12.174Z,2.90
2023-01-18T20:16:39.080Z,2.90
2023-01-18T20:19:05.833Z,2.80
2023-01-18T20:21:32.955Z,2.80
2023-01-18T20:23:59.940Z,2.80
2023-01-18T20:26:35.806Z,2.70
2023-01-18T20:29:06.743Z,2.70
2023-01-18T20:31:36.091Z,2.70
2023-01-18T20:34:03.727Z,2.80
2023-01-18T20:36:30.856Z,2.80
2023-01-18T20:38:57.549Z,2.80
2023-01-18T20:41:24.231Z,2.80
2023-01-18T20:43:51.141Z,2.80
2023-01-18T20:46:18.064Z,2.90
2023-01-18T20:48:44.859Z,2.90
2023-01-18T20:51:11.537Z,2.90
2023-01-18T20:53:38.259Z,2.90
2023-01-18T20:56:23.307Z,2.80
2023-01-18T20:58:54.670Z,2.80
2023-01-18T21:01:21.528Z,2.70
2023-01-18T21:03:54.097Z,2.70
2023-01-18T21:06:20.798Z,2.80
2023-01-18T21:08:47.495Z,2.70
2023-01-18T21:11:17.569Z,2.80
2023-01-18T21:13:44.361Z,2.80
2023-01-18T21:16:11.206Z,2.90
2023-01-18T21:18:39.392Z,3.00
2023-01-18T21:21:07.344Z,3.10
2023-01-18T21:23:39.497Z,3.10
2023-01-18T21:26:08.948Z,3.20
2023-01-18T21:28:36.060Z,3.30
2023-01-18T21:31:02.889Z,3.30
2023-01-18T21:33:29.590Z,3.30
2023-01-18T21:36:01.925Z,3.30
2023-01-18T21:38:29.684Z,3.40
2023-01-18T21:40:56.384Z,3.40
2023-01-18T21:43:41.515Z,3.40
2023-01-18T21:46:11.055Z,3.40
2023-01-18T21:48:37.801Z,3.50
2023-01-18T21:51:23.948Z,3.50
2023-01-18T21:54:09.362Z,3.50
2023-01-18T21:56:39.196Z,3.50
2023-01-18T21:59:05.965Z,3.60
2023-01-18T22:01:35.061Z,3.70
2023-01-18T22:04:22.690Z,3.70
2023-01-18T22:06:49.393Z,3.70
2023-01-18T22:09:16.251Z,3.70
2023-01-18T22:11:43.380Z,3.70
2023-01-18T22:14:10.579Z,3.70
2023-01-18T22:16:37.640Z,3.70
2023-01-18T22:19:05.112Z,3.70
2023-01-18T22:21:32.597Z,3.70
2023-01-18T22:23:59.448Z,3.70
2023-01-18T22:26:28.784Z,3.70
2023-01-18T22:28:55.945Z,3.70
2023-01-18T22:31:22.809Z,3.70
2023-01-18T22:33:49.483Z,3.70
2023-01-18T22:36:16.559Z,3.70
2023-01-18T22:38:43.909Z,3.70
2023-01-18T22:41:13.413Z,3.70
2023-01-18T22:43:40.896Z,3.70
2023-01-18T22:46:10.138Z,3.70
2023-01-18T22:48:37.843Z,3.70
2023-01-18T22:51:07.209Z,3.70
2023-01-18T22:53:34.813Z,3.70
2023-01-18T22:56:03.550Z,3.70
2023-01-18T22:58:30.651Z,3.80
2023-01-18T23:01:02.043Z,3.80
2023-01-18T23:03:30.008Z,3.80
2023-01-18T23:05:57.933Z,3.70
2023-01-18T23:08:38.227Z,3.70
2023-01-18T23:11:05.776Z,3.60
2023-01-18T23:13:32.479Z,3.60
2023-01-18T23:16:17.801Z,3.50
2023-01-18T23:18:44.466Z,3.50
2023-01-18T23:21:11.133Z,3.40
2023-01-18T23:23:40.644Z,3.40
2023-01-18T23:26:07.366Z,3.30
2023-01-18T23:28:43.091Z,3.30
2023-01-18T23:31:16.297Z,3.20
2023-01-18T23:33:43.594Z,3.20
2023-01-18T23:36:11.500Z,3.20
2023-01-18T23:38:57.148Z,3.10
2023-01-18T23:41:42.739Z,3.10
2023-01-18T23:44:28.067Z,3.10
2023-01-18T23:47:13.508Z,3.00
2023-01-18T23:49:58.954Z,3.00
2023-01-18T23:52:44.429Z,3.00
2023-01-18T23:55:11.149Z,2.90
2023-01-18T23:57:37.883Z,2.90
